KBFI/BFI METAR and TAF weather

Enter ICAO airport designator
Station Type Date Time Source
KBFI METAR 2020/01/18 03:53 UTC NOAA

KBFI 180353Z 13006KT 10SM OVC065 04/M02 A3015 RMK AO2 SLP210 T00441017


Station Type Date Time Source
KBFI Decoded METAR 2020/01/18 03:53 UTC NOAA

SEATTLE BOEING FIELD, WA, United States (KBFI) 47-33N 122-19W 4M
Jan 17, 2020 - 10:53 PM EST / 2020.01.18 0353 UTC
Wind: from the SE (130 degrees) at 7 MPH (6 KT):0
Visibility: 10 mile(s):0
Sky conditions: overcast
Temperature: 39.9 F (4.4 C)
Dew Point: 28.9 F (-1.7 C)
Relative Humidity: 64%
Pressure (altimeter): 30.15 in. Hg (1020 hPa)
ob: KBFI 180353Z 13006KT 10SM OVC065 04/M02 A3015 RMK AO2 SLP210 T00441017
cycle: 4

Station Type Date Time Source
KBFI TAF 2020/01/18 04:09 UTC NOAA

TAF
AMD KBFI 180406Z 1804/1824 13009KT P6SM OVC060
FM180800 13009KT P6SM -RA OVC040
FM181700 18010KT P6SM -SHRA OVC030
FM182100 18010KT P6SM SCT030 BKN045 BKN060

Example: see airport list